createdAt,value
2022-11-25T00:00:27.341Z,4.68
2022-11-25T00:01:27.558Z,4.74
2022-11-25T00:02:28.684Z,4.64
2022-11-25T00:03:28.913Z,4.63
2022-11-25T00:04:29.220Z,4.6
2022-11-25T00:05:29.422Z,4.64
2022-11-25T00:06:30.313Z,4.64
2022-11-25T00:07:30.638Z,4.61
2022-11-25T00:08:30.670Z,4.68
2022-11-25T00:09:31.280Z,4.6
2022-11-25T00:10:32.473Z,4.53
2022-11-25T00:11:32.675Z,4.57
2022-11-25T00:12:32.886Z,4.58
2022-11-25T00:13:33.390Z,4.58
2022-11-25T00:14:33.580Z,4.56
2022-11-25T00:15:34.619Z,4.53
2022-11-25T00:16:35.664Z,4.58
2022-11-25T00:17:35.467Z,4.6
2022-11-25T00:18:36.673Z,4.53
2022-11-25T00:19:36.871Z,4.56
2022-11-25T00:20:37.761Z,4.58
2022-11-25T00:21:38.645Z,4.57
2022-11-25T00:22:39.538Z,4.56
2022-11-25T00:23:39.201Z,4.53
2022-11-25T00:24:40.621Z,4.58
2022-11-25T00:25:40.529Z,4.61
2022-11-25T00:26:41.141Z,4.61
2022-11-25T00:27:41.569Z,4.53
2022-11-25T00:28:43.082Z,4.58
2022-11-25T00:29:43.698Z,4.57
2022-11-25T00:30:44.899Z,4.56
2022-11-25T00:31:45.052Z,4.57
2022-11-25T00:32:45.544Z,4.61
2022-11-25T00:33:46.457Z,4.58
2022-11-25T00:34:47.349Z,4.57
2022-11-25T00:35:47.955Z,4.56
2022-11-25T00:36:49.141Z,4.57
2022-11-25T00:37:49.876Z,4.64
2022-11-25T00:38:51.058Z,4.6
2022-11-25T00:39:51.982Z,4.57
2022-11-25T00:40:52.194Z,4.56
2022-11-25T00:41:52.393Z,4.58
2022-11-25T00:42:52.598Z,4.56
2022-11-25T00:43:52.541Z,4.5
2022-11-25T00:44:53.723Z,4.45
2022-11-25T00:45:54.857Z,4.57
2022-11-25T00:46:55.403Z,4.56
2022-11-25T00:47:56.126Z,4.56
2022-11-25T00:48:57.320Z,4.43
2022-11-25T00:49:57.662Z,4.56
2022-11-25T00:50:58.549Z,4.53
2022-11-25T00:51:59.180Z,4.52
2022-11-25T00:52:59.819Z,4.6
2022-11-25T00:54:04.742Z,4.45
2022-11-25T00:55:00.653Z,4.5
2022-11-25T00:56:01.552Z,4.56
2022-11-25T00:57:02.033Z,4.49
2022-11-25T00:58:02.381Z,4.52
2022-11-25T00:59:02.609Z,4.57
2022-11-25T01:00:02.998Z,4.53
2022-11-25T01:01:03.592Z,4.52
2022-11-25T01:02:03.715Z,4.53
2022-11-25T01:03:03.882Z,4.6
2022-11-25T01:04:04.496Z,4.52
2022-11-25T01:05:05.708Z,4.53
2022-11-25T01:06:05.622Z,4.53
2022-11-25T01:07:06.241Z,4.6
2022-11-25T01:08:07.204Z,4.52
2022-11-25T01:09:07.840Z,4.6
2022-11-25T01:10:08.765Z,4.52
2022-11-25T01:11:08.677Z,4.58
2022-11-25T01:12:09.602Z,4.57
2022-11-25T01:13:10.252Z,4.52
2022-11-25T01:14:10.477Z,4.56
2022-11-25T01:15:11.385Z,4.56
2022-11-25T01:16:11.863Z,4.56
2022-11-25T01:17:12.142Z,4.61
2022-11-25T01:18:12.863Z,4.61
2022-11-25T01:19:12.778Z,4.57
2022-11-25T01:20:13.368Z,4.53
2022-11-25T01:21:13.268Z,4.58
2022-11-25T01:22:13.879Z,4.58
2022-11-25T01:23:14.791Z,4.63
2022-11-25T01:24:15.980Z,4.56
2022-11-25T01:25:16.455Z,4.6
2022-11-25T01:26:16.967Z,4.56
2022-11-25T01:27:17.150Z,4.57
2022-11-25T01:28:18.155Z,4.56
2022-11-25T01:29:18.100Z,4.6
2022-11-25T01:30:19.293Z,4.66
2022-11-25T01:31:19.665Z,4.63
2022-11-25T01:32:20.505Z,4.66
2022-11-25T01:33:20.429Z,4.66
2022-11-25T01:34:21.054Z,4.67
2022-11-25T01:35:21.949Z,4.67
2022-11-25T01:36:22.580Z,4.56
2022-11-25T01:37:23.485Z,4.66
2022-11-25T01:38:24.558Z,4.57
2022-11-25T01:39:33.232Z,4.57
2022-11-25T01:40:26.012Z,4.6
2022-11-25T01:41:25.911Z,4.63
2022-11-25T01:42:26.115Z,4.57
2022-11-25T01:43:26.335Z,4.56
2022-11-25T01:44:26.559Z,4.53
2022-11-25T01:45:29.374Z,4.57
2022-11-25T01:46:27.890Z,4.56
2022-11-25T01:47:27.782Z,4.58
2022-11-25T01:48:29.057Z,4.66
2022-11-25T01:49:29.243Z,4.57
2022-11-25T01:50:29.429Z,4.63
2022-11-25T01:51:30.031Z,4.57
2022-11-25T01:52:30.244Z,4.66
2022-11-25T01:53:31.155Z,4.67
2022-11-25T01:54:31.345Z,4.63
2022-11-25T01:55:32.160Z,4.74
2022-11-25T01:56:32.646Z,4.66
2022-11-25T01:57:32.556Z,4.68
2022-11-25T01:58:33.598Z,4.6
2022-11-25T01:59:33.519Z,4.68
2022-11-25T02:00:34.421Z,4.67
2022-11-25T02:01:35.624Z,4.63
2022-11-25T02:02:36.180Z,4.68
2022-11-25T02:03:36.370Z,4.63
2022-11-25T02:04:37.067Z,4.67
2022-11-25T02:05:39.744Z,4.63
2022-11-25T02:06:37.661Z,4.64
2022-11-25T02:07:38.557Z,4.66
2022-11-25T02:08:39.143Z,4.53
2022-11-25T02:09:39.629Z,4.57
2022-11-25T02:10:39.820Z,4.56
2022-11-25T02:11:40.136Z,4.56
2022-11-25T02:12:40.479Z,4.56
2022-11-25T02:13:41.998Z,4.57
2022-11-25T02:14:42.579Z,4.53
2022-11-25T02:15:43.467Z,4.63
2022-11-25T02:16:43.980Z,4.56
2022-11-25T02:17:44.113Z,4.63
2022-11-25T02:18:45.160Z,4.64
2022-11-25T02:19:45.087Z,4.53
2022-11-25T02:20:45.571Z,4.61
2022-11-25T02:21:46.180Z,4.66
2022-11-25T02:22:46.094Z,4.56
2022-11-25T02:23:46.404Z,4.64
2022-11-25T02:24:48.024Z,4.61
2022-11-25T02:25:48.317Z,4.6
2022-11-25T02:26:48.243Z,4.64
2022-11-25T02:27:48.852Z,4.66
2022-11-25T02:28:49.000Z,4.63
2022-11-25T02:29:49.931Z,4.58
2022-11-25T02:30:50.540Z,4.68
2022-11-25T02:31:51.972Z,4.57
2022-11-25T02:32:52.008Z,4.7
2022-11-25T02:33:53.638Z,4.63
2022-11-25T02:34:54.235Z,4.64
2022-11-25T02:35:54.853Z,4.64
2022-11-25T02:36:55.035Z,4.71
2022-11-25T02:37:55.947Z,4.66
2022-11-25T02:38:55.968Z,4.7
2022-11-25T02:39:56.907Z,4.75
2022-11-25T02:40:58.124Z,4.74
2022-11-25T02:41:59.012Z,4.76
2022-11-25T02:42:59.918Z,4.79
2022-11-25T02:44:01.130Z,4.78
2022-11-25T02:45:01.368Z,4.71
2022-11-25T02:46:02.301Z,4.79
2022-11-25T02:47:02.838Z,4.76
2022-11-25T02:48:04.027Z,4.78
2022-11-25T02:49:17.093Z,4.79
2022-11-25T02:50:16.731Z,4.82
2022-11-25T02:51:17.341Z,4.84
2022-11-25T02:52:17.973Z,4.78
2022-11-25T02:53:18.883Z,4.79
2022-11-25T02:54:18.801Z,4.84
2022-11-25T02:55:19.409Z,4.82
2022-11-25T02:56:20.599Z,4.83
2022-11-25T02:57:21.521Z,4.75
2022-11-25T02:58:22.009Z,4.79
2022-11-25T02:59:22.046Z,4.84
2022-11-25T03:00:22.278Z,4.83
2022-11-25T03:01:23.480Z,4.83
2022-11-25T03:02:24.016Z,4.83
2022-11-25T03:03:25.115Z,4.78
2022-11-25T03:04:25.123Z,4.82
2022-11-25T03:05:26.077Z,4.82
2022-11-25T03:06:26.980Z,4.86
2022-11-25T03:07:27.151Z,4.79
2022-11-25T03:08:27.684Z,4.78
2022-11-25T03:09:28.385Z,4.86
2022-11-25T03:10:28.594Z,4.76
2022-11-25T03:11:29.781Z,4.82
2022-11-25T03:12:30.670Z,4.83
2022-11-25T03:13:30.880Z,4.82
2022-11-25T03:14:31.822Z,4.82
2022-11-25T03:15:32.035Z,4.84
2022-11-25T03:16:33.698Z,4.83
2022-11-25T03:17:34.052Z,4.79
2022-11-25T03:18:34.970Z,4.78
2022-11-25T03:19:35.707Z,4.75
2022-11-25T03:20:36.887Z,4.76
2022-11-25T03:21:37.526Z,4.76
2022-11-25T03:22:37.714Z,4.7
2022-11-25T03:23:37.659Z,4.71
2022-11-25T03:24:39.055Z,4.82
2022-11-25T03:25:39.585Z,4.68
2022-11-25T03:26:40.168Z,4.75
2022-11-25T03:27:41.075Z,4.7
2022-11-25T03:28:40.998Z,4.67
2022-11-25T03:29:42.008Z,4.68
2022-11-25T03:30:42.509Z,4.66
2022-11-25T03:31:43.293Z,4.67
2022-11-25T03:32:43.670Z,4.76
2022-11-25T03:33:43.871Z,4.66
2022-11-25T03:34:44.754Z,4.74
2022-11-25T03:35:44.383Z,4.6
2022-11-25T03:36:45.133Z,4.63
2022-11-25T03:37:45.828Z,4.61
2022-11-25T03:38:45.739Z,4.66
2022-11-25T03:39:46.753Z,4.71
2022-11-25T03:40:48.239Z,4.67
2022-11-25T03:41:48.870Z,4.57
2022-11-25T03:42:49.186Z,4.66
2022-11-25T03:43:49.823Z,4.56
2022-11-25T03:44:51.034Z,4.6
2022-11-25T03:45:51.472Z,4.61
2022-11-25T03:46:51.966Z,4.57
2022-11-25T03:47:52.890Z,4.6
2022-11-25T03:48:53.074Z,4.56
2022-11-25T03:49:53.790Z,4.5
2022-11-25T03:50:53.699Z,4.48
2022-11-25T03:51:54.318Z,4.49
2022-11-25T03:52:54.524Z,4.5
2022-11-25T03:53:55.156Z,4.57
2022-11-25T03:54:56.347Z,4.53
2022-11-25T03:55:56.979Z,4.52
2022-11-25T03:56:57.457Z,4.58
2022-11-25T03:57:57.664Z,4.53
2022-11-25T03:58:58.575Z,4.52
2022-11-25T03:59:59.899Z,4.6
2022-11-25T04:01:00.549Z,4.5
2022-11-25T04:02:00.805Z,4.45
2022-11-25T04:03:01.235Z,4.57
2022-11-25T04:04:01.443Z,4.56
2022-11-25T04:05:02.642Z,4.5
2022-11-25T04:06:02.842Z,4.53
2022-11-25T04:07:02.754Z,4.56
2022-11-25T04:08:04.050Z,4.48
2022-11-25T04:09:03.710Z,4.43
2022-11-25T04:10:04.131Z,4.52
2022-11-25T04:11:05.045Z,4.45
2022-11-25T04:12:04.952Z,4.49
2022-11-25T04:13:05.880Z,4.5
2022-11-25T04:14:07.077Z,4.48
2022-11-25T04:15:08.014Z,4.46
2022-11-25T04:16:08.240Z,4.48
2022-11-25T04:17:09.518Z,4.5
2022-11-25T04:18:09.735Z,4.45
2022-11-25T04:19:10.350Z,4.45
2022-11-25T04:20:11.650Z,4.43
2022-11-25T04:21:12.267Z,4.48
2022-11-25T04:22:13.479Z,4.43
2022-11-25T04:23:13.437Z,4.34
2022-11-25T04:24:14.069Z,4.46
2022-11-25T04:25:15.260Z,4.36
2022-11-25T04:26:15.882Z,4.38
2022-11-25T04:27:16.592Z,4.43
2022-11-25T04:28:17.121Z,4.36
2022-11-25T04:29:18.035Z,4.43
2022-11-25T04:30:18.358Z,4.49
2022-11-25T04:31:18.898Z,4.49
2022-11-25T04:32:19.116Z,4.52
2022-11-25T04:33:20.729Z,4.52
2022-11-25T04:34:20.922Z,4.53
2022-11-25T04:35:21.142Z,4.49
2022-11-25T04:36:21.777Z,4.48
2022-11-25T04:37:22.084Z,4.53
2022-11-25T04:38:23.403Z,4.57
2022-11-25T04:39:24.315Z,4.56
2022-11-25T04:40:25.033Z,4.49
2022-11-25T04:41:25.656Z,4.43
2022-11-25T04:42:26.542Z,4.53
2022-11-25T04:43:26.901Z,4.49
2022-11-25T04:44:27.388Z,4.49
2022-11-25T04:46:12.851Z,4.57
2022-11-25T04:46:31.278Z,4.52
2022-11-25T04:47:31.303Z,4.5
2022-11-25T04:48:32.497Z,4.57
2022-11-25T04:49:32.816Z,4.6
2022-11-25T04:50:33.962Z,4.57
2022-11-25T04:51:34.877Z,4.53
2022-11-25T04:52:35.375Z,4.58
2022-11-25T04:53:36.084Z,4.56
2022-11-25T04:54:37.579Z,4.61
2022-11-25T04:55:37.559Z,4.56
2022-11-25T04:56:38.179Z,4.63
2022-11-25T04:57:39.531Z,4.61
2022-11-25T04:58:39.735Z,4.58
2022-11-25T04:59:40.350Z,4.56
2022-11-25T05:00:41.936Z,4.52
2022-11-25T05:01:42.456Z,4.52
2022-11-25T05:02:42.789Z,4.68
2022-11-25T05:03:53.147Z,4.58
2022-11-25T05:04:44.856Z,4.56
2022-11-25T05:05:45.075Z,4.56
2022-11-25T05:06:45.978Z,4.57
2022-11-25T05:07:47.095Z,4.57
2022-11-25T05:08:47.346Z,4.66
2022-11-25T05:09:48.280Z,4.6
2022-11-25T05:10:48.981Z,4.61
2022-11-25T05:11:48.874Z,4.58
2022-11-25T05:12:49.492Z,4.57
2022-11-25T05:13:49.879Z,4.6
2022-11-25T05:14:50.783Z,4.61
2022-11-25T05:15:51.705Z,4.61
2022-11-25T05:16:52.666Z,4.56
2022-11-25T05:17:53.410Z,4.61
2022-11-25T05:18:53.614Z,4.52
2022-11-25T05:19:53.921Z,4.53
2022-11-25T05:20:54.051Z,4.53
2022-11-25T05:21:53.955Z,4.63
2022-11-25T05:22:54.585Z,4.53
2022-11-25T05:24:01.653Z,4.53
2022-11-25T05:24:56.272Z,4.56
2022-11-25T05:25:56.917Z,4.6
2022-11-25T05:26:57.106Z,4.56
2022-11-25T05:27:58.138Z,4.56
2022-11-25T05:28:58.766Z,4.57
2022-11-25T05:30:02.070Z,4.63
2022-11-25T05:30:59.392Z,4.52
2022-11-25T05:31:59.246Z,4.53
2022-11-25T05:33:00.746Z,4.52
2022-11-25T05:34:00.953Z,4.58
2022-11-25T05:35:01.854Z,4.61
2022-11-25T05:36:02.512Z,4.53
2022-11-25T05:37:03.136Z,4.56
2022-11-25T05:38:04.096Z,4.52
2022-11-25T05:39:04.279Z,4.56
2022-11-25T05:40:04.893Z,4.63
2022-11-25T05:41:06.205Z,4.58
2022-11-25T05:42:06.139Z,4.57
2022-11-25T05:43:06.343Z,4.56
2022-11-25T05:44:06.555Z,4.66
2022-11-25T05:45:07.117Z,4.66
2022-11-25T05:46:08.221Z,4.67
2022-11-25T05:47:08.338Z,4.67
2022-11-25T05:48:08.905Z,4.66
2022-11-25T05:49:09.530Z,4.66
2022-11-25T05:50:10.149Z,4.57
2022-11-25T05:51:11.136Z,4.66
2022-11-25T05:52:11.620Z,4.61
2022-11-25T05:53:11.657Z,4.64
2022-11-25T05:54:12.267Z,4.61
2022-11-25T05:55:12.600Z,4.71
2022-11-25T05:56:13.809Z,4.7
2022-11-25T05:57:14.405Z,4.67
2022-11-25T05:58:14.890Z,4.67
2022-11-25T05:59:14.788Z,4.64
2022-11-25T06:00:15.689Z,4.7
2022-11-25T06:01:16.145Z,4.64
2022-11-25T06:02:17.057Z,4.66
2022-11-25T06:03:18.047Z,4.68
2022-11-25T06:04:18.468Z,4.67
2022-11-25T06:05:19.090Z,4.68
2022-11-25T06:06:20.335Z,4.74
2022-11-25T06:07:20.478Z,4.75
2022-11-25T06:08:20.311Z,4.83
2022-11-25T06:09:21.504Z,4.82
2022-11-25T06:10:21.820Z,4.82
2022-11-25T06:11:23.186Z,4.78
2022-11-25T06:12:23.374Z,4.82
2022-11-25T06:13:23.363Z,4.82
2022-11-25T06:14:24.264Z,4.79
2022-11-25T06:15:24.283Z,4.84
2022-11-25T06:16:25.733Z,4.76
2022-11-25T06:17:25.751Z,4.87
2022-11-25T06:18:25.706Z,4.94
2022-11-25T06:19:26.637Z,4.83
2022-11-25T06:20:27.293Z,4.92
2022-11-25T06:21:28.608Z,4.83
2022-11-25T06:22:28.531Z,4.83
2022-11-25T06:23:28.864Z,4.84
2022-11-25T06:24:29.763Z,4.9
2022-11-25T06:25:30.271Z,4.9
2022-11-25T06:26:30.162Z,4.92
2022-11-25T06:28:11.663Z,4.92
2022-11-25T06:28:31.988Z,4.87
2022-11-25T06:29:31.608Z,4.92
2022-11-25T06:30:31.944Z,4.9
2022-11-25T06:31:33.073Z,4.9
2022-11-25T06:32:37.883Z,4.84
2022-11-25T06:33:34.086Z,5.01
2022-11-25T06:34:35.899Z,4.98
2022-11-25T06:35:35.406Z,4.94
2022-11-25T06:36:36.603Z,4.94
2022-11-25T06:37:36.650Z,4.94
2022-11-25T06:38:38.158Z,5
2022-11-25T06:39:38.099Z,4.9
2022-11-25T06:40:39.385Z,5.02
2022-11-25T06:41:39.678Z,5
2022-11-25T06:42:40.291Z,5.02
2022-11-25T06:43:41.184Z,4.95
2022-11-25T06:44:42.017Z,4.98
2022-11-25T06:45:41.926Z,4.98
2022-11-25T06:46:43.439Z,5.02
2022-11-25T06:47:43.315Z,4.98
2022-11-25T06:48:43.252Z,5
2022-11-25T06:49:44.476Z,5.01
2022-11-25T06:50:44.107Z,5.07
2022-11-25T06:51:44.858Z,5.07
2022-11-25T06:52:45.046Z,5.13
2022-11-25T06:53:45.376Z,5.13
2022-11-25T06:54:46.265Z,5.12
2022-11-25T06:55:46.803Z,5.18
2022-11-25T06:56:47.141Z,5.2
2022-11-25T06:57:47.623Z,5.16
2022-11-25T06:58:47.739Z,5.23
2022-11-25T06:59:48.360Z,5.2
2022-11-25T07:00:49.276Z,5.29
2022-11-25T07:01:49.705Z,5.29
2022-11-25T07:02:54.636Z,5.25
2022-11-25T07:03:50.030Z,5.37
2022-11-25T07:04:50.693Z,5.38
2022-11-25T07:05:51.589Z,5.43
2022-11-25T07:06:51.821Z,5.36
2022-11-25T07:07:52.182Z,5.37
2022-11-25T07:08:52.561Z,5.38
2022-11-25T07:09:53.192Z,5.37
2022-11-25T07:10:54.108Z,5.38
2022-11-25T07:11:55.099Z,5.38
2022-11-25T07:12:55.147Z,5.33
2022-11-25T07:13:56.334Z,5.36
2022-11-25T07:14:57.245Z,5.41
2022-11-25T07:15:57.671Z,5.4
2022-11-25T07:16:57.748Z,5.44
2022-11-25T07:17:58.232Z,5.4
2022-11-25T07:18:58.740Z,5.41
2022-11-25T07:19:59.668Z,5.41
2022-11-25T07:21:00.579Z,5.37
2022-11-25T07:22:00.904Z,5.38
2022-11-25T07:23:01.545Z,5.38
2022-11-25T07:24:02.757Z,5.41
2022-11-25T07:25:03.037Z,5.41
2022-11-25T07:26:03.634Z,5.4
2022-11-25T07:27:03.545Z,5.36
2022-11-25T07:28:04.862Z,5.4
2022-11-25T07:29:36.309Z,5.41
2022-11-25T07:31:34.147Z,5.37
2022-11-25T07:32:03.368Z,5.4
2022-11-25T07:33:01.874Z,5.46
2022-11-25T07:34:02.615Z,5.43
2022-11-25T07:35:03.070Z,5.46
2022-11-25T07:36:03.411Z,5.51
2022-11-25T07:37:04.636Z,5.47
2022-11-25T07:38:04.544Z,5.52
2022-11-25T07:39:05.483Z,5.47
2022-11-25T07:40:05.826Z,5.47
2022-11-25T07:41:06.458Z,5.55
2022-11-25T07:42:07.083Z,5.59
2022-11-25T07:43:07.803Z,5.54
2022-11-25T07:44:07.998Z,5.55
2022-11-25T07:45:08.481Z,5.61
2022-11-25T07:46:08.834Z,5.61
2022-11-25T07:47:09.223Z,5.73
2022-11-25T07:48:10.180Z,5.73
2022-11-25T07:49:10.490Z,5.69
2022-11-25T07:50:11.411Z,5.73
2022-11-25T07:51:12.036Z,5.73
2022-11-25T07:52:12.271Z,5.72
2022-11-25T07:53:12.746Z,5.59
2022-11-25T07:54:14.394Z,5.64
2022-11-25T07:55:14.331Z,5.7
2022-11-25T07:56:15.278Z,5.69
2022-11-25T07:57:15.765Z,5.73
2022-11-25T07:58:15.967Z,5.72
2022-11-25T07:59:16.589Z,5.73
2022-11-25T08:00:17.959Z,5.7
2022-11-25T08:01:18.889Z,5.72
2022-11-25T08:02:19.684Z,5.77
2022-11-25T08:03:20.786Z,5.79
2022-11-25T08:04:25.833Z,5.74
2022-11-25T08:05:21.460Z,5.83
2022-11-25T08:06:22.694Z,5.81
2022-11-25T08:07:23.138Z,5.87
2022-11-25T08:08:23.442Z,5.92
2022-11-25T08:09:24.724Z,5.87
2022-11-25T08:10:25.457Z,5.97
2022-11-25T08:11:26.084Z,5.92
2022-11-25T08:12:27.000Z,5.91
2022-11-25T08:13:27.720Z,5.91
2022-11-25T08:14:28.650Z,6.05
2022-11-25T08:15:28.544Z,6.07
2022-11-25T08:16:29.945Z,6.05
2022-11-25T08:17:30.269Z,6.07
2022-11-25T08:18:31.192Z,5.98
2022-11-25T08:19:37.574Z,5.99
2022-11-25T08:20:32.612Z,6.12
2022-11-25T08:21:33.320Z,6.2
2022-11-25T08:22:33.678Z,6.19
2022-11-25T08:23:34.467Z,6.22
2022-11-25T08:24:34.699Z,6.26
2022-11-25T08:25:35.024Z,6.31
2022-11-25T08:26:35.696Z,6.38
2022-11-25T08:27:36.895Z,6.38
2022-11-25T08:28:36.908Z,6.38
2022-11-25T08:29:37.860Z,6.39
2022-11-25T08:30:37.377Z,6.47
2022-11-25T08:31:38.902Z,6.44
2022-11-25T08:32:39.313Z,6.56
2022-11-25T08:33:40.068Z,6.7
2022-11-25T08:34:40.052Z,6.56
2022-11-25T08:35:41.326Z,6.64
2022-11-25T08:36:49.116Z,6.62
2022-11-25T08:37:42.476Z,6.54
2022-11-25T08:38:42.418Z,6.75
2022-11-25T08:39:59.375Z,6.77
2022-11-25T08:40:43.880Z,6.7
2022-11-25T08:41:43.788Z,6.86
2022-11-25T08:42:44.365Z,6.78
2022-11-25T08:43:44.497Z,6.86
2022-11-25T08:44:44.313Z,6.95
2022-11-25T08:45:45.522Z,6.87
2022-11-25T08:46:46.500Z,6.95
2022-11-25T08:47:46.900Z,7.04
2022-11-25T08:48:47.844Z,7.18
2022-11-25T08:49:49.196Z,7.15
2022-11-25T08:50:49.125Z,7.04
2022-11-25T08:51:49.346Z,7.11
2022-11-25T08:52:49.571Z,7.14
2022-11-25T08:53:50.571Z,7.1
2022-11-25T08:54:51.088Z,7.03
2022-11-25T08:55:51.000Z,7.08
2022-11-25T08:56:51.911Z,7.01
2022-11-25T08:57:51.827Z,7.11
2022-11-25T08:58:52.365Z,7.08
2022-11-25T08:59:52.547Z,7.19
2022-11-25T09:00:52.760Z,7.14
2022-11-25T09:01:54.189Z,7.13
2022-11-25T09:02:54.325Z,7.14
2022-11-25T09:03:54.813Z,7.19
2022-11-25T09:04:55.061Z,7.22
2022-11-25T09:05:56.346Z,7.25
2022-11-25T09:06:56.588Z,7.28
2022-11-25T09:07:57.547Z,7.19
2022-11-25T09:08:57.051Z,7.25
2022-11-25T09:09:57.689Z,7.25
2022-11-25T09:10:57.579Z,7.31
2022-11-25T09:11:58.428Z,7.37
2022-11-25T09:12:59.077Z,7.36
2022-11-25T09:14:00.575Z,7.32
2022-11-25T09:15:01.100Z,7.33
2022-11-25T09:16:01.250Z,7.31
2022-11-25T09:17:01.510Z,7.43
2022-11-25T09:18:01.770Z,7.37
2022-11-25T09:19:02.514Z,7.32
2022-11-25T09:20:03.019Z,7.39
2022-11-25T09:21:03.253Z,7.36
2022-11-25T09:22:03.883Z,7.32
2022-11-25T09:23:03.846Z,7.33
2022-11-25T09:24:04.127Z,7.36
2022-11-25T09:25:05.326Z,7.48
2022-11-25T09:26:05.994Z,7.56
2022-11-25T09:27:06.639Z,7.59
2022-11-25T09:28:06.870Z,7.56
2022-11-25T09:29:06.800Z,7.61
2022-11-25T09:30:07.726Z,7.7
2022-11-25T09:31:08.755Z,7.64
2022-11-25T09:32:08.822Z,7.69
2022-11-25T09:33:09.316Z,7.59
2022-11-25T09:34:09.344Z,7.67
2022-11-25T09:35:09.582Z,7.75
2022-11-25T09:36:10.795Z,7.85
2022-11-25T09:37:10.572Z,7.85
2022-11-25T09:38:11.821Z,7.96
2022-11-25T09:39:12.446Z,7.98
2022-11-25T09:40:12.642Z,8.06
2022-11-25T09:41:13.092Z,8.14
2022-11-25T09:42:13.881Z,8.16
2022-11-25T09:43:14.809Z,8.27
2022-11-25T09:44:15.249Z,8.54
2022-11-25T09:45:15.464Z,8.71
2022-11-25T09:46:16.242Z,8.9
2022-11-25T09:47:16.364Z,9.22
2022-11-25T09:48:17.263Z,9.59
2022-11-25T09:49:17.792Z,9.67
2022-11-25T09:50:18.010Z,9.81
2022-11-25T09:51:18.970Z,10.06
2022-11-25T09:52:19.497Z,10.15
2022-11-25T09:53:19.741Z,10.24
2022-11-25T09:54:20.031Z,10.21
2022-11-25T09:55:20.529Z,10.25
2022-11-25T09:56:20.745Z,10.36
2022-11-25T09:57:21.394Z,10.48
2022-11-25T09:58:22.893Z,10.77
2022-11-25T09:59:23.092Z,10.95
2022-11-25T10:00:23.926Z,11.35
2022-11-25T10:01:24.574Z,11.49
2022-11-25T10:02:25.682Z,11.71
2022-11-25T10:03:26.238Z,11.95
2022-11-25T10:04:26.845Z,12.08
2022-11-25T10:05:27.081Z,12.26
2022-11-25T10:06:28.522Z,12.48
2022-11-25T10:07:28.875Z,12.57
2022-11-25T10:08:29.135Z,12.75
2022-11-25T10:09:29.687Z,12.95
2022-11-25T10:10:30.499Z,13.13
2022-11-25T10:11:30.456Z,13.31
2022-11-25T10:12:30.966Z,13.4
2022-11-25T10:13:31.479Z,13.39
2022-11-25T10:14:32.220Z,13.4
2022-11-25T10:15:32.465Z,13.45
2022-11-25T10:16:33.421Z,13.64
2022-11-25T10:17:33.681Z,13.86
2022-11-25T10:18:34.687Z,13.95
2022-11-25T10:19:35.633Z,14.07
2022-11-25T10:20:34.869Z,14.38
2022-11-25T10:21:36.114Z,14.44
2022-11-25T10:22:36.335Z,14.78
2022-11-25T10:23:37.278Z,15.04
2022-11-25T10:24:41.702Z,15.08
2022-11-25T10:25:37.765Z,15.19
2022-11-25T10:26:38.971Z,15.32
2022-11-25T10:27:39.193Z,15.36
2022-11-25T10:28:40.414Z,15.44
2022-11-25T10:29:41.067Z,15.6
2022-11-25T10:30:41.589Z,15.75
2022-11-25T10:31:42.554Z,15.83
2022-11-25T10:32:42.424Z,15.83
2022-11-25T10:33:43.779Z,15.98
2022-11-25T10:34:44.451Z,16
2022-11-25T10:35:45.027Z,16.22
2022-11-25T10:36:45.555Z,16.26
2022-11-25T10:37:45.487Z,16.26
2022-11-25T10:38:46.443Z,16.44
2022-11-25T10:39:46.952Z,16.43
2022-11-25T10:40:46.886Z,16.44
2022-11-25T10:41:47.809Z,16.5
2022-11-25T10:42:48.004Z,16.39
2022-11-25T10:43:48.651Z,16.36
2022-11-25T10:44:48.984Z,16.1
2022-11-25T10:45:50.012Z,15.87
2022-11-25T10:47:18.508Z,15.43
2022-11-25T10:47:51.673Z,15.23
2022-11-25T10:48:52.769Z,14.86
2022-11-25T10:49:52.722Z,14.56
2022-11-25T10:50:53.247Z,14.3
2022-11-25T10:51:54.205Z,14.12
2022-11-25T10:52:54.418Z,13.95
2022-11-25T10:53:54.658Z,13.64
2022-11-25T10:54:54.945Z,13.57
2022-11-25T10:55:56.150Z,13.31
2022-11-25T10:56:56.645Z,13.26
2022-11-25T10:57:57.345Z,13.08
2022-11-25T10:58:58.009Z,12.99
2022-11-25T10:59:58.981Z,12.87
2022-11-25T11:00:59.865Z,12.81
2022-11-25T11:02:01.135Z,12.62
2022-11-25T11:03:01.311Z,12.51
2022-11-25T11:04:02.422Z,12.45
2022-11-25T11:05:02.772Z,12.36
2022-11-25T11:06:03.052Z,12.37
2022-11-25T11:07:04.311Z,12.29
2022-11-25T11:08:04.426Z,12.17
2022-11-25T11:09:05.398Z,12.08
2022-11-25T11:10:05.341Z,12.05
2022-11-25T11:11:06.327Z,11.91
2022-11-25T11:12:07.532Z,11.77
2022-11-25T11:13:07.735Z,11.77
2022-11-25T11:14:07.671Z,11.65
2022-11-25T11:15:08.764Z,11.74
2022-11-25T11:16:09.149Z,11.59
2022-11-25T11:17:10.032Z,11.51
2022-11-25T11:18:10.955Z,11.43
2022-11-25T11:19:10.897Z,11.43
2022-11-25T11:20:11.586Z,11.41
2022-11-25T11:21:12.827Z,11.38
2022-11-25T11:22:13.328Z,11.35
2022-11-25T11:23:15.344Z,11.31
2022-11-25T11:24:14.086Z,11.23
2022-11-25T11:25:13.844Z,11.27
2022-11-25T11:26:15.055Z,11.23
2022-11-25T11:27:15.255Z,11.15
2022-11-25T11:28:15.745Z,11.13
2022-11-25T11:29:20.146Z,11.13
2022-11-25T11:30:17.074Z,11.18
2022-11-25T11:31:17.194Z,11.22
2022-11-25T11:32:17.722Z,11.26
2022-11-25T11:33:18.354Z,11.43
2022-11-25T11:34:18.255Z,11.53
2022-11-25T11:35:19.293Z,11.67
2022-11-25T11:36:19.533Z,11.85
2022-11-25T11:37:20.466Z,12.1
2022-11-25T11:38:21.097Z,12.26
2022-11-25T11:39:21.326Z,12.51
2022-11-25T11:40:21.830Z,12.66
2022-11-25T11:41:22.753Z,12.78
2022-11-25T11:42:22.968Z,13.02
2022-11-25T11:43:23.894Z,13.23
2022-11-25T11:44:24.119Z,13.42
2022-11-25T11:45:24.797Z,13.67
2022-11-25T11:46:25.820Z,13.87
2022-11-25T11:47:26.512Z,14.04
2022-11-25T11:48:26.960Z,14.41
2022-11-25T11:49:31.449Z,14.55
2022-11-25T11:50:28.415Z,14.55
2022-11-25T11:51:28.950Z,14.74
2022-11-25T11:52:29.255Z,14.93
2022-11-25T11:53:29.955Z,14.96
2022-11-25T11:54:30.178Z,15.07
2022-11-25T11:55:30.299Z,15.04
2022-11-25T11:56:40.851Z,15.15
2022-11-25T11:57:30.472Z,15.08
2022-11-25T11:58:31.396Z,15.1
2022-11-25T11:59:31.622Z,15.02
2022-11-25T12:00:31.557Z,15
2022-11-25T12:01:32.293Z,15.12
2022-11-25T12:02:32.924Z,15.08
2022-11-25T12:03:32.628Z,15.08
2022-11-25T12:04:33.003Z,14.96
2022-11-25T12:05:33.948Z,14.99
2022-11-25T12:06:34.196Z,15.02
2022-11-25T12:07:35.169Z,15.07
2022-11-25T12:08:35.396Z,15.23
2022-11-25T12:09:36.062Z,15.47
2022-11-25T12:10:36.996Z,15.54
2022-11-25T12:11:36.922Z,15.63
2022-11-25T12:12:38.426Z,15.76
2022-11-25T12:13:38.332Z,15.8
2022-11-25T12:14:39.181Z,15.83
2022-11-25T12:15:39.617Z,15.85
2022-11-25T12:16:41.009Z,15.94
2022-11-25T12:17:40.945Z,16.02
2022-11-25T12:18:42.187Z,16
2022-11-25T12:19:42.812Z,16.17
2022-11-25T12:20:44.074Z,16.28
2022-11-25T12:21:47.417Z,16.39
2022-11-25T12:22:45.117Z,16.44
2022-11-25T12:23:45.057Z,16.5
2022-11-25T12:24:46.263Z,16.58
2022-11-25T12:25:46.285Z,16.74
2022-11-25T12:26:46.911Z,16.64
2022-11-25T12:27:48.131Z,16.65
2022-11-25T12:28:48.778Z,16.69
2022-11-25T12:29:49.786Z,16.8
2022-11-25T12:30:50.444Z,16.74
2022-11-25T12:31:51.829Z,16.82
2022-11-25T12:32:52.370Z,16.91
2022-11-25T12:33:52.576Z,16.87
2022-11-25T12:34:53.225Z,16.87
2022-11-25T12:35:53.720Z,16.83
2022-11-25T12:36:54.003Z,16.83
2022-11-25T12:37:55.243Z,16.92
2022-11-25T12:38:55.487Z,16.79
2022-11-25T12:39:56.701Z,16.8
2022-11-25T12:40:57.207Z,16.83
2022-11-25T12:41:57.868Z,16.83
2022-11-25T12:42:57.798Z,16.8
2022-11-25T12:43:59.059Z,16.74
2022-11-25T12:44:59.321Z,16.73
2022-11-25T12:45:59.758Z,16.65
2022-11-25T12:47:00.068Z,16.57
2022-11-25T12:48:01.010Z,16.5
2022-11-25T12:49:00.928Z,16.31
2022-11-25T12:50:01.861Z,16.26
2022-11-25T12:51:02.230Z,16.16
2022-11-25T12:52:02.799Z,16.08
2022-11-25T12:53:03.049Z,15.9
2022-11-25T12:54:03.459Z,15.94
2022-11-25T12:55:03.967Z,15.96
2022-11-25T12:56:04.279Z,15.96
2022-11-25T12:57:05.504Z,16.05
2022-11-25T12:58:05.739Z,15.96
2022-11-25T12:59:06.081Z,15.96
2022-11-25T13:00:42.936Z,15.78
2022-11-25T13:01:07.988Z,15.81
2022-11-25T13:02:08.485Z,15.83
2022-11-25T13:03:14.476Z,15.76
2022-11-25T13:04:10.113Z,15.54
2022-11-25T13:05:41.380Z,15.39
2022-11-25T13:06:28.899Z,15.39
2022-11-25T13:07:30.269Z,15.3
2022-11-25T13:08:31.500Z,15.15
2022-11-25T13:09:32.432Z,15.11
2022-11-25T13:10:32.687Z,15.05
2022-11-25T13:11:34.456Z,14.87
2022-11-25T13:12:35.093Z,14.78
2022-11-25T13:13:35.916Z,14.63
2022-11-25T13:14:37.466Z,14.51
2022-11-25T13:15:37.145Z,14.36
2022-11-25T13:16:37.878Z,14.34
2022-11-25T13:17:36.430Z,14.44
2022-11-25T13:18:37.106Z,14.28
2022-11-25T13:19:37.030Z,14.23
2022-11-25T13:20:38.252Z,14.23
2022-11-25T13:21:38.512Z,14.16
2022-11-25T13:22:38.795Z,14.12
2022-11-25T13:23:39.102Z,14.04